Time;durP1;ratioP1;P1;durP2;ratioP2;P2;SDS_P1;SDS_P2;PMS_P1;PMS_P2;Temp;Humidity;BMP_temperature;BMP_pressure;BME280_temperature;BME280_humidity;BME280_pressure;Samples;Min_cycle;Max_cycle;Signal;HPM_P1;HPM_P2
2022/06/30 00:03:10;;;;;;;40.05;33.50;;;21.20;99.90;;;;;;10410856;28;20116;-84
2022/06/30 00:08:11;;;;;;;41.10;33.35;;;21.10;99.90;;;;;;10411470;28;20037;-84
2022/06/30 00:13:12;;;;;;;38.95;32.88;;;21.10;99.90;;;;;;10411521;28;20033;-85
2022/06/30 00:18:12;;;;;;;43.33;33.80;;;21.20;99.90;;;;;;10422763;28;20569;-86
2022/06/30 00:23:13;;;;;;;41.40;33.45;;;21.10;99.90;;;;;;10416538;28;20032;-85
2022/06/30 00:28:14;;;;;;;39.63;33.70;;;21.10;99.90;;;;;;10413537;28;20120;-84
2022/06/30 00:33:14;;;;;;;39.83;33.28;;;21.10;99.90;;;;;;10409958;28;20473;-84
2022/06/30 00:38:15;;;;;;;40.92;32.97;;;21.10;99.90;;;;;;10410586;28;20124;-84
2022/06/30 00:43:16;;;;;;;44.40;36.20;;;21.00;99.90;;;;;;10407826;28;20033;-84
2022/06/30 00:48:17;;;;;;;45.47;36.03;;;21.00;99.90;;;;;;10417115;28;20043;-84
2022/06/30 00:53:19;;;;;;;42.15;35.58;;;20.90;99.90;;;;;;10412629;28;20068;-84
2022/06/30 00:58:20;;;;;;;43.95;35.58;;;20.90;99.90;;;;;;10409959;28;20017;-85
2022/06/30 01:03:22;;;;;;;45.03;34.63;;;20.80;99.90;;;;;;10409242;28;20457;-85
2022/06/30 01:08:24;;;;;;;49.03;36.55;;;20.80;99.90;;;;;;10409557;28;20041;-84
2022/06/30 01:13:24;;;;;;;49.63;38.45;;;20.60;99.90;;;;;;10408413;28;20397;-85
2022/06/30 01:18:25;;;;;;;58.30;40.30;;;20.50;99.90;;;;;;10410860;28;20061;-85
2022/06/30 01:23:25;;;;;;;53.28;38.83;;;20.40;99.90;;;;;;10404118;28;20068;-83
2022/06/30 01:28:26;;;;;;;46.40;35.58;;;20.30;99.90;;;;;;10408243;28;20045;-84
2022/06/30 01:33:27;;;;;;;47.80;37.08;;;20.30;99.90;;;;;;10413868;28;20105;-86
2022/06/30 01:38:27;;;;;;;47.17;35.55;;;20.30;99.90;;;;;;10403003;28;20030;-85
2022/06/30 01:43:28;;;;;;;48.63;35.05;;;20.40;99.90;;;;;;10411384;28;20029;-85
2022/06/30 01:48:29;;;;;;;41.10;31.95;;;20.40;99.90;;;;;;10407417;28;20061;-85
2022/06/30 01:53:29;;;;;;;47.42;37.17;;;20.40;99.90;;;;;;10406807;28;20021;-85
2022/06/30 01:58:30;;;;;;;43.33;33.47;;;20.40;99.90;;;;;;10407593;28;20041;-85
2022/06/30 02:03:31;;;;;;;51.50;36.13;;;20.40;99.90;;;;;;10407603;28;20638;-85
2022/06/30 02:08:31;;;;;;;50.70;35.45;;;20.30;99.90;;;;;;10407827;28;20041;-86
2022/06/30 02:13:32;;;;;;;60.58;41.00;;;20.20;99.90;;;;;;10404831;28;20025;-87
2022/06/30 02:18:32;;;;;;;53.28;39.85;;;20.10;99.90;;;;;;10404179;28;20057;-84
2022/06/30 02:23:33;;;;;;;61.05;40.20;;;20.10;99.90;;;;;;10397411;28;20106;-85
2022/06/30 02:28:33;;;;;;;60.10;43.20;;;20.00;99.90;;;;;;10405847;28;20041;-85
2022/06/30 02:33:34;;;;;;;65.88;43.60;;;20.00;99.90;;;;;;10406982;28;20034;-86
2022/06/30 02:38:34;;;;;;;66.95;45.28;;;19.90;99.90;;;;;;10404448;28;20022;-86
2022/06/30 02:43:35;;;;;;;58.88;40.47;;;19.90;99.90;;;;;;10405127;28;20033;-84
2022/06/30 02:48:35;;;;;;;57.38;39.03;;;19.90;99.90;;;;;;10406044;28;20099;-85
2022/06/30 02:53:36;;;;;;;67.30;44.35;;;19.80;99.90;;;;;;10403838;28;20029;-85
2022/06/30 02:58:37;;;;;;;68.90;45.55;;;19.80;99.90;;;;;;10404687;28;20461;-84
2022/06/30 03:03:37;;;;;;;65.70;43.75;;;19.90;99.90;;;;;;10409573;28;20045;-85
2022/06/30 03:08:38;;;;;;;64.60;44.03;;;19.90;99.90;;;;;;10396350;28;20054;-84
2022/06/30 03:13:38;;;;;;;67.82;46.53;;;19.90;99.90;;;;;;10416985;28;20037;-85
2022/06/30 03:18:40;;;;;;;57.65;40.78;;;19.90;99.90;;;;;;10403976;28;20547;-85
2022/06/30 03:23:41;;;;;;;61.22;43.10;;;19.90;99.90;;;;;;10404760;28;20428;-86
2022/06/30 03:28:42;;;;;;;64.85;45.08;;;19.90;99.90;;;;;;10406307;28;20037;-84
2022/06/30 03:33:42;;;;;;;65.82;44.80;;;20.00;99.90;;;;;;10403889;28;20424;-86
2022/06/30 03:38:43;;;;;;;61.88;44.88;;;20.00;99.90;;;;;;10404781;28;20033;-85
2022/06/30 03:43:43;;;;;;;58.58;41.08;;;20.00;99.90;;;;;;10402354;28;20032;-86
2022/06/30 03:48:44;;;;;;;60.28;42.30;;;20.20;99.90;;;;;;10406859;28;20033;-82
2022/06/30 03:53:44;;;;;;;62.10;44.75;;;20.40;99.90;;;;;;10403696;28;20036;-83
2022/06/30 03:58:45;;;;;;;55.72;41.72;;;20.70;99.90;;;;;;10403913;28;20038;-85
2022/06/30 04:03:46;;;;;;;49.72;38.15;;;21.00;99.90;;;;;;10415432;28;20049;-84
2022/06/30 04:08:46;;;;;;;47.38;37.15;;;21.20;99.90;;;;;;10416969;23;20065;-86
2022/06/30 04:13:47;;;;;;;44.40;35.83;;;21.50;99.90;;;;;;10421629;28;20040;-86
2022/06/30 04:18:48;;;;;;;40.22;34.00;;;21.70;99.90;;;;;;10402709;28;20496;-84
2022/06/30 04:23:48;;;;;;;36.85;31.10;;;21.90;99.90;;;;;;10374127;28;20557;-84
2022/06/30 04:28:49;;;;;;;40.10;33.30;;;22.10;99.90;;;;;;10409876;28;20029;-85
2022/06/30 04:33:49;;;;;;;35.92;30.65;;;22.20;99.90;;;;;;10420236;28;20021;-88
2022/06/30 04:38:50;;;;;;;40.40;31.77;;;22.20;99.90;;;;;;10397600;28;20672;-85
2022/06/30 04:43:55;;;;;;;39.35;30.75;;;22.20;99.90;;;;;;10368511;28;20026;-87
2022/06/30 04:48:56;;;;;;;39.97;32.13;;;22.30;99.90;;;;;;10418896;28;20038;-87
2022/06/30 04:53:57;;;;;;;41.42;34.30;;;22.40;99.90;;;;;;10386682;28;20034;-86
2022/06/30 04:58:57;;;;;;;38.47;33.25;;;22.40;99.90;;;;;;10369091;28;20041;-84
2022/06/30 05:03:58;;;;;;;39.65;33.53;;;22.50;99.90;;;;;;10377412;28;20420;-86
2022/06/30 05:08:59;;;;;;;36.45;32.28;;;22.60;99.90;;;;;;10385720;28;20050;-85
2022/06/30 05:13:59;;;;;;;41.20;32.78;;;22.60;99.90;;;;;;10381129;28;20037;-84
2022/06/30 05:19:00;;;;;;;39.05;31.20;;;22.70;99.90;;;;;;10390739;28;20033;-87
2022/06/30 05:29:19;;;;;;;40.85;31.45;;;22.80;99.90;;;;;;10371934;28;20054;-84
2022/06/30 05:34:20;;;;;;;35.03;31.13;;;22.90;99.90;;;;;;10387730;28;20026;-85
2022/06/30 05:39:20;;;;;;;36.15;32.22;;;23.10;99.90;;;;;;10369050;28;20030;-84
2022/06/30 05:44:21;;;;;;;38.58;32.33;;;23.20;99.90;;;;;;10395270;28;20042;-85
2022/06/30 05:49:23;;;;;;;36.35;31.90;;;23.40;99.90;;;;;;10392672;28;20072;-85
2022/06/30 05:54:23;;;;;;;38.47;30.65;;;23.60;99.90;;;;;;10378746;28;20465;-83
2022/06/30 05:59:24;;;;;;;35.83;31.75;;;23.60;99.90;;;;;;10407111;28;20025;-85
2022/06/30 06:04:25;;;;;;;35.75;31.25;;;23.80;99.90;;;;;;10380519;28;20401;-84
2022/06/30 06:09:26;;;;;;;33.33;29.77;;;23.90;99.90;;;;;;10362986;28;20080;-84
2022/06/30 06:14:26;;;;;;;33.65;29.58;;;24.00;99.90;;;;;;10369819;28;20018;-83
2022/06/30 06:19:27;;;;;;;31.95;28.55;;;24.20;99.90;;;;;;10389626;28;20042;-88
2022/06/30 06:24:27;;;;;;;33.67;30.15;;;24.30;99.90;;;;;;10374400;28;20440;-85
2022/06/30 06:29:28;;;;;;;30.58;27.23;;;24.50;99.90;;;;;;10386264;28;20033;-84
2022/06/30 06:34:28;;;;;;;33.40;27.88;;;24.60;99.90;;;;;;10385142;28;20531;-85
2022/06/30 06:39:29;;;;;;;34.08;30.23;;;24.80;99.90;;;;;;10383621;28;20032;-85
2022/06/30 06:44:29;;;;;;;35.95;29.83;;;25.00;99.90;;;;;;10371285;28;20045;-88
2022/06/30 06:49:30;;;;;;;37.33;29.42;;;25.10;99.90;;;;;;10374713;28;20026;-84
2022/06/30 06:54:31;;;;;;;34.67;29.38;;;25.40;99.90;;;;;;10371686;28;20048;-86
2022/06/30 06:59:34;;;;;;;37.78;30.48;;;25.70;99.90;;;;;;10383528;28;20024;-85
2022/06/30 07:04:35;;;;;;;33.38;29.05;;;26.70;99.90;;;;;;10377527;28;20041;-83
2022/06/30 07:09:35;;;;;;;32.35;28.73;;;27.80;99.90;;;;;;10367186;28;20420;-85
2022/06/30 07:14:36;;;;;;;30.92;27.00;;;28.30;99.90;;;;;;10374869;28;20026;-86
2022/06/30 07:19:36;;;;;;;29.05;26.05;;;29.40;99.90;;;;;;10400607;28;20053;-85
2022/06/30 07:24:37;;;;;;;28.75;25.50;;;29.80;99.90;;;;;;10385371;28;20042;-85
2022/06/30 07:29:37;;;;;;;33.20;26.88;;;30.30;99.90;;;;;;10374861;28;20108;-83
2022/06/30 07:34:38;;;;;;;24.25;21.65;;;30.80;99.90;;;;;;10379145;28;20040;-83
2022/06/30 07:39:38;;;;;;;25.40;21.38;;;31.40;99.90;;;;;;10390427;28;20083;-84
2022/06/30 07:44:40;;;;;;;21.27;19.00;;;31.70;99.40;;;;;;10403410;23;20048;-85
2022/06/30 07:49:41;;;;;;;23.17;20.55;;;32.10;97.50;;;;;;10405646;28;20017;-84
2022/06/30 07:54:42;;;;;;;21.88;19.15;;;32.40;96.50;;;;;;10389788;28;20468;-84
2022/06/30 07:59:42;;;;;;;80.75;46.60;;;32.30;95.50;;;;;;10383708;28;20025;-82
2022/06/30 08:04:43;;;;;;;27.85;20.52;;;31.80;95.20;;;;;;10394280;28;20044;-86
2022/06/30 08:09:43;;;;;;;23.80;20.45;;;31.60;95.50;;;;;;10396113;28;20025;-84
2022/06/30 08:14:44;;;;;;;20.88;18.67;;;31.50;95.80;;;;;;10395877;28;20042;-84
2022/06/30 08:19:44;;;;;;;19.90;17.73;;;31.40;94.20;;;;;;10385301;28;20022;-85
2022/06/30 08:24:45;;;;;;;25.38;18.50;;;31.40;93.50;;;;;;10383545;28;20017;-84
2022/06/30 08:29:45;;;;;;;20.60;18.40;;;31.30;93.30;;;;;;10402590;28;20427;-83
2022/06/30 08:34:46;;;;;;;21.95;17.17;;;31.40;92.50;;;;;;10389520;28;20041;-85
2022/06/30 08:45:17;;;;;;;18.35;16.33;;;31.70;91.50;;;;;;10380682;28;20136;-84
2022/06/30 08:50:18;;;;;;;18.80;16.73;;;31.90;91.30;;;;;;10372970;28;20049;-84
2022/06/30 08:55:25;;;;;;;18.73;16.73;;;32.10;91.80;;;;;;10399547;28;20034;-84
2022/06/30 09:00:25;;;;;;;16.65;14.77;;;32.50;92.20;;;;;;10388119;28;20033;-83
2022/06/30 09:05:26;;;;;;;16.40;14.63;;;32.70;91.00;;;;;;10382787;28;20026;-84
2022/06/30 09:10:28;;;;;;;15.88;14.05;;;32.60;88.50;;;;;;10395200;28;20026;-84
2022/06/30 09:15:37;;;;;;;15.57;12.73;;;32.70;87.70;;;;;;10403778;28;20060;-86
2022/06/30 09:20:40;;;;;;;15.77;11.48;;;32.90;86.60;;;;;;10387812;28;20021;-84
2022/06/30 09:25:41;;;;;;;14.63;11.27;;;33.00;84.90;;;;;;10379583;28;20009;-87
2022/06/30 09:30:41;;;;;;;15.75;11.75;;;33.40;79.60;;;;;;10384479;28;20029;-84
2022/06/30 09:35:42;;;;;;;13.05;11.50;;;33.40;77.90;;;;;;10387101;28;20041;-86
2022/06/30 09:41:04;;;;;;;14.25;12.75;;;33.40;79.60;;;;;;10383066;28;20053;-83
2022/06/30 09:46:05;;;;;;;18.98;13.73;;;33.60;82.80;;;;;;10378426;28;20038;-86
2022/06/30 09:57:06;;;;;;;19.25;14.57;;;33.90;81.00;;;;;;10387376;28;20126;-84
2022/06/30 10:02:10;;;;;;;18.30;14.25;;;34.20;81.60;;;;;;10392758;28;20022;-84
2022/06/30 10:07:12;;;;;;;16.25;14.45;;;34.40;77.70;;;;;;10389110;28;20462;-86
2022/06/30 10:12:13;;;;;;;16.10;14.40;;;34.10;77.60;;;;;;10395913;28;20099;-84
2022/06/30 10:17:18;;;;;;;17.55;12.70;;;33.80;79.20;;;;;;10389624;28;20569;-85
2022/06/30 10:22:22;;;;;;;17.60;12.77;;;34.30;78.50;;;;;;10370781;28;20029;-86
2022/06/30 10:27:25;;;;;;;17.38;13.73;;;34.40;77.40;;;;;;10378735;28;20386;-85
2022/06/30 10:33:19;;;;;;;14.73;13.07;;;34.40;79.10;;;;;;10382378;28;20033;-88
2022/06/30 10:38:46;;;;;;;15.00;13.37;;;34.60;77.90;;;;;;10384966;28;20480;-85
2022/06/30 10:44:05;;;;;;;15.57;12.43;;;34.50;76.90;;;;;;10376302;28;20077;-86
2022/06/30 10:49:12;;;;;;;10.98;9.35;;;34.40;75.70;;;;;;10371881;28;20030;-86
2022/06/30 10:54:30;;;;;;;16.05;12.63;;;34.70;72.60;;;;;;10383892;28;20034;-84
2022/06/30 10:59:41;;;;;;;11.93;9.70;;;34.90;77.40;;;;;;10378432;28;20026;-84
2022/06/30 11:04:44;;;;;;;11.68;10.40;;;35.20;75.40;;;;;;10389103;28;20025;-84
2022/06/30 11:09:44;;;;;;;11.32;8.52;;;35.40;73.00;;;;;;10370525;28;20026;-85
2022/06/30 11:14:53;;;;;;;10.57;8.95;;;35.70;68.40;;;;;;10372190;28;20033;-86
2022/06/30 11:20:03;;;;;;;10.85;9.25;;;35.70;70.60;;;;;;10374754;28;20014;-83
2022/06/30 11:25:09;;;;;;;12.57;9.40;;;35.80;69.70;;;;;;10373901;28;20026;-86
2022/06/30 11:30:11;;;;;;;12.65;9.15;;;35.90;69.90;;;;;;10370126;28;20026;-87
2022/06/30 11:35:11;;;;;;;11.55;9.23;;;35.80;70.30;;;;;;10367147;28;20069;-85
2022/06/30 11:40:15;;;;;;;22.05;10.85;;;35.80;70.00;;;;;;10377511;28;20096;-87
2022/06/30 11:45:20;;;;;;;14.45;10.95;;;36.00;68.90;;;;;;10389658;28;20125;-86
2022/06/30 11:50:23;;;;;;;10.52;9.52;;;35.90;66.80;;;;;;10377898;28;20538;-87
2022/06/30 11:55:25;;;;;;;11.80;9.93;;;35.70;71.10;;;;;;10378054;28;20060;-84
2022/06/30 12:00:31;;;;;;;14.23;10.23;;;35.80;71.00;;;;;;10390532;28;20022;-87
2022/06/30 12:05:32;;;;;;;12.60;9.85;;;35.90;67.60;;;;;;10377081;28;20021;-83
2022/06/30 12:10:35;;;;;;;13.85;9.98;;;36.10;67.30;;;;;;10378449;28;20025;-86
2022/06/30 12:15:36;;;;;;;10.65;9.52;;;36.40;70.90;;;;;;10376031;28;20034;-85
2022/06/30 12:20:38;;;;;;;10.88;9.52;;;36.40;70.10;;;;;;10390209;28;20424;-85
2022/06/30 12:25:38;;;;;;;12.65;9.13;;;36.60;66.60;;;;;;10382590;28;20079;-87
2022/06/30 12:30:53;;;;;;;11.07;9.05;;;36.60;63.70;;;;;;10383381;28;20088;-83
2022/06/30 12:35:59;;;;;;;9.27;8.27;;;36.20;63.50;;;;;;10372233;28;20018;-84
2022/06/30 12:41:16;;;;;;;10.68;8.82;;;36.30;67.70;;;;;;10397703;28;20047;-84
2022/06/30 12:46:18;;;;;;;11.68;8.45;;;36.70;66.10;;;;;;10372351;28;21031;-86
2022/06/30 12:51:28;;;;;;;11.90;7.80;;;36.90;65.70;;;;;;10373715;28;20018;-84
2022/06/30 12:56:29;;;;;;;13.70;9.10;;;37.00;63.90;;;;;;10381735;28;20042;-88
2022/06/30 13:01:39;;;;;;;10.18;8.02;;;37.00;64.70;;;;;;10385803;28;20104;-85
2022/06/30 13:06:42;;;;;;;12.05;7.43;;;37.20;63.70;;;;;;10385041;28;20045;-86
2022/06/30 13:11:46;;;;;;;8.03;7.23;;;37.40;64.20;;;;;;10384026;28;20037;-83
2022/06/30 13:16:48;;;;;;;10.20;7.65;;;36.90;65.20;;;;;;10376105;28;20025;-86
2022/06/30 13:21:50;;;;;;;10.98;8.20;;;36.10;67.30;;;;;;10375052;28;20018;-86
2022/06/30 13:26:52;;;;;;;10.00;7.75;;;35.10;67.50;;;;;;10378855;28;20046;-85
2022/06/30 13:31:52;;;;;;;9.05;8.15;;;34.20;69.60;;;;;;10376145;28;20033;-84
2022/06/30 13:36:53;;;;;;;11.45;7.80;;;33.40;70.70;;;;;;10390132;28;20045;-86
2022/06/30 13:41:54;;;;;;;8.45;7.38;;;32.80;72.60;;;;;;10371512;28;20083;-83
2022/06/30 13:46:54;;;;;;;8.90;7.78;;;32.40;74.30;;;;;;10373956;28;20033;-86
2022/06/30 13:51:55;;;;;;;8.55;7.63;;;32.00;74.80;;;;;;10374305;28;20129;-85
2022/06/30 13:56:56;;;;;;;8.80;7.55;;;31.70;76.10;;;;;;10369263;28;20034;-84
2022/06/30 14:01:56;;;;;;;15.40;9.65;;;31.20;77.80;;;;;;10378078;28;20097;-83
2022/06/30 14:06:57;;;;;;;33.95;15.80;;;30.30;91.00;;;;;;10372603;28;20037;-83
2022/06/30 14:11:58;;;;;;;28.85;16.67;;;27.70;99.90;;;;;;10396498;28;20026;-84
2022/06/30 14:16:58;;;;;;;27.88;21.02;;;25.60;99.90;;;;;;10384995;28;20380;-82
2022/06/30 14:21:59;;;;;;;26.38;20.20;;;24.50;99.90;;;;;;10384403;28;20022;-81
2022/06/30 14:26:59;;;;;;;34.35;26.70;;;23.70;99.90;;;;;;10387366;28;20368;-82
2022/06/30 14:32:00;;;;;;;33.45;26.10;;;23.30;99.90;;;;;;10378489;28;20038;-83
2022/06/30 14:37:01;;;;;;;29.73;22.45;;;23.10;99.90;;;;;;10387997;28;20038;-85
2022/06/30 14:47:21;;;;;;;33.92;25.10;;;23.10;99.90;;;;;;10387128;28;20429;-81
2022/06/30 14:52:22;;;;;;;28.23;23.60;;;23.10;99.90;;;;;;10377915;28;20113;-81
2022/06/30 14:57:22;;;;;;;32.78;26.90;;;23.10;99.90;;;;;;10383824;28;20739;-82
2022/06/30 15:02:23;;;;;;;30.27;24.42;;;23.00;99.90;;;;;;10379509;28;20057;-84
2022/06/30 15:07:24;;;;;;;27.73;23.35;;;22.90;99.90;;;;;;10383445;28;20025;-82
2022/06/30 15:12:24;;;;;;;30.95;25.17;;;22.80;99.90;;;;;;10393471;28;20160;-83
2022/06/30 15:17:25;;;;;;;34.22;27.27;;;22.80;99.90;;;;;;10381391;28;20033;-82
2022/06/30 15:27:45;;;;;;;16.70;13.88;;;22.90;99.90;;;;;;10379566;28;20026;-83
2022/06/30 15:32:46;;;;;;;20.75;15.18;;;23.10;99.90;;;;;;10400771;28;20026;-82
2022/06/30 15:37:46;;;;;;;20.48;17.23;;;23.30;99.90;;;;;;10387094;28;20281;-83
2022/06/30 15:42:48;;;;;;;17.55;13.63;;;23.50;99.90;;;;;;10386279;28;20513;-82
2022/06/30 15:47:50;;;;;;;17.83;13.05;;;23.70;99.90;;;;;;10384845;28;20465;-80
2022/06/30 15:52:50;;;;;;;17.58;15.43;;;23.90;99.90;;;;;;10380661;28;20025;-81
2022/06/30 15:57:51;;;;;;;17.30;13.27;;;24.10;99.90;;;;;;10377317;28;20033;-83
2022/06/30 16:02:54;;;;;;;17.98;15.38;;;24.20;99.90;;;;;;10377492;28;20034;-86
2022/06/30 16:07:55;;;;;;;17.65;14.50;;;24.20;99.90;;;;;;10388924;28;20396;-81
2022/06/30 16:12:55;;;;;;;18.35;15.82;;;24.20;99.90;;;;;;10411635;23;20069;-83
2022/06/30 16:17:56;;;;;;;18.17;16.20;;;24.20;99.90;;;;;;10383137;28;20029;-85
2022/06/30 16:22:57;;;;;;;22.30;19.10;;;24.10;99.90;;;;;;10393494;28;20038;-83
2022/06/30 16:27:57;;;;;;;22.35;19.33;;;24.00;99.90;;;;;;10387161;28;20346;-83
2022/06/30 16:32:58;;;;;;;20.58;18.38;;;24.10;99.90;;;;;;10388527;28;20028;-83
2022/06/30 16:37:59;;;;;;;24.23;19.10;;;24.20;99.90;;;;;;10386484;28;20048;-85
2022/06/30 16:43:01;;;;;;;17.00;14.43;;;24.30;99.90;;;;;;10379177;28;20026;-83
2022/06/30 16:48:02;;;;;;;21.05;16.23;;;24.40;99.90;;;;;;10377016;28;20035;-82
2022/06/30 16:53:02;;;;;;;17.67;15.82;;;24.50;99.90;;;;;;10387581;28;20040;-82
2022/06/30 16:58:05;;;;;;;20.23;16.80;;;24.70;99.90;;;;;;10395547;28;20045;-83
2022/06/30 17:03:05;;;;;;;17.25;14.75;;;24.80;99.90;;;;;;10382012;28;20033;-82
2022/06/30 17:08:06;;;;;;;17.73;15.90;;;24.80;99.90;;;;;;10376686;28;20028;-83
2022/06/30 17:13:07;;;;;;;19.67;15.38;;;24.80;99.90;;;;;;10395019;28;20072;-84
2022/06/30 17:18:08;;;;;;;19.85;16.20;;;24.80;99.90;;;;;;10383297;28;20824;-82
2022/06/30 17:23:08;;;;;;;19.10;15.82;;;24.80;99.90;;;;;;10381004;28;20029;-82
2022/06/30 17:28:09;;;;;;;18.23;16.17;;;25.00;99.90;;;;;;10395650;28;20026;-83
2022/06/30 17:33:10;;;;;;;19.80;16.70;;;25.00;99.90;;;;;;10388460;28;20025;-83
2022/06/30 17:38:10;;;;;;;20.02;17.02;;;25.10;99.90;;;;;;10390049;28;20044;-82
2022/06/30 17:43:11;;;;;;;19.38;16.42;;;25.00;99.90;;;;;;10387529;28;20033;-83
2022/06/30 17:48:13;;;;;;;22.25;15.52;;;25.00;99.90;;;;;;10377763;28;20025;-84
2022/06/30 17:53:15;;;;;;;18.67;15.40;;;24.90;99.90;;;;;;10385248;28;20029;-85
2022/06/30 17:58:17;;;;;;;18.23;14.80;;;24.80;99.90;;;;;;10384343;28;20025;-82
2022/06/30 18:03:19;;;;;;;18.70;14.70;;;24.80;99.90;;;;;;10388599;28;20496;-82
2022/06/30 18:13:40;;;;;;;20.90;14.77;;;24.40;99.90;;;;;;10382391;28;20504;-82
2022/06/30 18:18:42;;;;;;;16.98;14.27;;;24.30;99.90;;;;;;10371027;28;20042;-82
2022/06/30 18:23:43;;;;;;;19.35;14.27;;;24.10;99.90;;;;;;10383845;28;20113;-83
2022/06/30 18:28:45;;;;;;;17.08;14.02;;;24.00;99.90;;;;;;10381224;28;20645;-83
2022/06/30 18:33:45;;;;;;;18.48;14.98;;;23.80;99.90;;;;;;10376747;28;20038;-87
2022/06/30 18:38:46;;;;;;;17.13;14.10;;;23.70;99.90;;;;;;10371712;28;20046;-83
2022/06/30 18:43:47;;;;;;;19.75;15.90;;;23.60;99.90;;;;;;10375899;28;20033;-83
2022/06/30 18:48:48;;;;;;;18.80;13.98;;;23.50;99.90;;;;;;10366474;28;20488;-83
2022/06/30 18:53:49;;;;;;;23.02;15.15;;;23.40;99.90;;;;;;10385132;28;20025;-83
2022/06/30 18:58:50;;;;;;;19.75;14.65;;;23.30;99.90;;;;;;10379076;28;20041;-81
2022/06/30 19:03:50;;;;;;;18.92;13.82;;;23.20;99.90;;;;;;10391257;28;20028;-82
2022/06/30 19:08:51;;;;;;;22.58;14.82;;;23.20;99.90;;;;;;10380073;28;20026;-82
2022/06/30 19:13:52;;;;;;;21.40;15.20;;;23.10;99.90;;;;;;10384383;28;20052;-82
2022/06/30 19:18:52;;;;;;;19.77;14.98;;;23.00;99.90;;;;;;10380855;28;20818;-83
2022/06/30 19:23:53;;;;;;;24.17;16.17;;;22.90;99.90;;;;;;10381862;28;20049;-82
2022/06/30 19:28:54;;;;;;;18.65;15.40;;;22.80;99.90;;;;;;10379164;28;20129;-86
2022/06/30 19:33:56;;;;;;;18.52;15.13;;;22.80;99.90;;;;;;10374815;28;20031;-82
2022/06/30 19:38:58;;;;;;;24.15;16.92;;;22.70;99.90;;;;;;10376301;28;20036;-83
2022/06/30 19:43:59;;;;;;;18.40;16.23;;;22.70;99.90;;;;;;10390362;28;20230;-83
2022/06/30 19:49:00;;;;;;;19.77;16.27;;;22.80;99.90;;;;;;10373551;28;20156;-83
2022/06/30 19:54:01;;;;;;;19.25;15.88;;;22.80;99.90;;;;;;10376839;28;20040;-83
2022/06/30 19:59:02;;;;;;;23.00;18.05;;;22.70;99.90;;;;;;10378566;28;20038;-83
2022/06/30 20:14:41;;;;;;;23.52;17.65;;;22.40;99.90;;;;;;10370399;28;20042;-83
2022/06/30 20:19:44;;;;;;;23.80;18.30;;;22.50;99.90;;;;;;10383041;28;20022;-82
2022/06/30 20:24:45;;;;;;;25.90;19.23;;;22.50;99.90;;;;;;10388117;28;20041;-82
2022/06/30 20:29:45;;;;;;;21.45;18.20;;;22.60;99.90;;;;;;10385340;28;20048;-82
2022/06/30 20:34:46;;;;;;;21.88;18.20;;;22.70;99.90;;;;;;10384710;28;20688;-82
2022/06/30 20:39:47;;;;;;;25.88;20.55;;;22.70;99.90;;;;;;10384915;28;20439;-84
2022/06/30 20:44:48;;;;;;;21.48;19.17;;;22.70;99.90;;;;;;10384783;28;20539;-83
2022/06/30 20:55:08;;;;;;;22.73;19.20;;;22.70;99.90;;;;;;10375701;28;20042;-83
2022/06/30 21:00:09;;;;;;;27.55;19.55;;;22.80;99.90;;;;;;10375894;28;20029;-82
2022/06/30 21:05:11;;;;;;;22.50;18.45;;;22.80;99.90;;;;;;10373533;28;20022;-82
2022/06/30 21:10:12;;;;;;;25.55;19.98;;;22.70;99.90;;;;;;10374909;28;20878;-83
2022/06/30 21:15:12;;;;;;;23.92;19.63;;;22.50;99.90;;;;;;10378907;28;20049;-84
2022/06/30 21:20:13;;;;;;;23.45;20.88;;;22.50;99.90;;;;;;10374560;28;20018;-82
2022/06/30 21:25:13;;;;;;;24.30;19.65;;;22.40;99.90;;;;;;10386755;28;20113;-82
2022/06/30 21:30:14;;;;;;;27.75;19.05;;;22.50;99.90;;;;;;10383647;28;20431;-83
2022/06/30 21:35:15;;;;;;;24.75;18.38;;;22.50;99.90;;;;;;10408762;28;20036;-83
2022/06/30 21:40:16;;;;;;;23.30;19.08;;;22.60;99.90;;;;;;10406171;28;20033;-82
2022/06/30 21:45:17;;;;;;;23.65;18.77;;;22.60;99.90;;;;;;10406481;23;20060;-85
2022/06/30 21:50:18;;;;;;;22.15;18.08;;;22.50;99.90;;;;;;10377445;28;20029;-82
2022/06/30 21:55:18;;;;;;;22.38;19.42;;;22.40;99.90;;;;;;10386361;28;20136;-82
2022/06/30 22:00:19;;;;;;;28.00;19.25;;;22.20;99.90;;;;;;10382167;28;20067;-84
2022/06/30 22:05:20;;;;;;;24.58;18.77;;;21.90;99.90;;;;;;10397222;28;20037;-82
2022/06/30 22:10:20;;;;;;;23.60;18.67;;;21.80;99.90;;;;;;10389210;28;20109;-82
2022/06/30 22:15:21;;;;;;;25.63;19.23;;;21.70;99.90;;;;;;10372900;28;20041;-82
2022/06/30 22:20:22;;;;;;;23.80;18.55;;;21.60;99.90;;;;;;10365939;28;20699;-83
2022/06/30 22:25:22;;;;;;;23.50;18.42;;;21.50;99.90;;;;;;10368303;28;20040;-83
2022/06/30 22:30:23;;;;;;;23.05;18.20;;;21.50;99.90;;;;;;10376124;28;20034;-83
2022/06/30 22:35:24;;;;;;;22.30;19.00;;;21.50;99.90;;;;;;10364524;28;20044;-83
2022/06/30 22:40:25;;;;;;;21.73;18.23;;;21.80;99.90;;;;;;10379091;28;20030;-82
2022/06/30 22:45:25;;;;;;;27.42;20.08;;;21.90;99.90;;;;;;10380431;28;20054;-82
2022/06/30 22:50:26;;;;;;;26.20;20.30;;;22.00;99.90;;;;;;10380432;28;20056;-81
2022/06/30 22:55:26;;;;;;;25.73;19.60;;;22.00;99.90;;;;;;10379223;28;20128;-82
2022/06/30 23:00:28;;;;;;;26.23;19.83;;;21.80;99.90;;;;;;10373831;28;20026;-82
2022/06/30 23:05:29;;;;;;;26.08;20.05;;;21.70;99.90;;;;;;10368950;28;20026;-84
2022/06/30 23:10:29;;;;;;;21.40;17.92;;;21.50;99.90;;;;;;10368392;28;20079;-84
2022/06/30 23:15:31;;;;;;;22.33;18.00;;;21.30;99.90;;;;;;10379677;28;20037;-81
2022/06/30 23:20:31;;;;;;;22.85;17.60;;;21.20;99.90;;;;;;10374431;28;20029;-82
2022/06/30 23:25:32;;;;;;;27.35;20.60;;;21.10;99.90;;;;;;10374619;28;20037;-84
2022/06/30 23:30:32;;;;;;;28.33;22.20;;;21.00;99.90;;;;;;10369904;28;20132;-82
2022/06/30 23:35:33;;;;;;;26.42;21.95;;;21.10;99.90;;;;;;10377955;28;20037;-83
2022/06/30 23:40:35;;;;;;;30.42;22.35;;;21.00;99.90;;;;;;10366990;28;20111;-82
2022/06/30 23:45:36;;;;;;;23.10;20.60;;;21.00;99.90;;;;;;10367391;28;20382;-82
2022/06/30 23:50:37;;;;;;;29.88;23.25;;;20.90;99.90;;;;;;10375661;28;20051;-82
2022/06/30 23:55:37;;;;;;;27.77;22.42;;;20.80;99.90;;;;;;10381706;28;20134;-82
